createdAt,value
2017-10-24T00:01:24.040Z,7.80
2017-10-24T00:03:58.759Z,7.30
2017-10-24T00:06:34.524Z,15.67
2017-10-24T00:09:09.172Z,8.77
2017-10-24T00:11:43.947Z,9.30
2017-10-24T00:14:18.488Z,8.87
2017-10-24T00:16:53.139Z,12.70
2017-10-24T00:19:27.495Z,12.00
2017-10-24T00:22:02.499Z,12.97
2017-10-24T00:24:37.395Z,17.13
2017-10-24T00:27:12.252Z,13.80
2017-10-24T00:29:47.155Z,13.80
2017-10-24T00:32:22.040Z,11.60
2017-10-24T00:34:57.543Z,8.33
2017-10-24T00:37:33.117Z,8.33
2017-10-24T00:40:07.903Z,11.37
2017-10-24T00:42:42.635Z,9.03
2017-10-24T00:45:17.484Z,10.73
2017-10-24T00:47:52.251Z,13.90
2017-10-24T00:50:26.609Z,13.13
2017-10-24T00:53:01.579Z,10.10
2017-10-24T00:55:35.872Z,14.50
2017-10-24T00:58:10.592Z,9.87
2017-10-24T01:00:45.356Z,16.63
2017-10-24T01:03:20.397Z,10.13
2017-10-24T01:05:54.995Z,15.43
2017-10-24T01:08:29.489Z,17.13
2017-10-24T01:11:04.881Z,11.13
2017-10-24T01:13:39.388Z,13.53
2017-10-24T01:16:13.796Z,8.70
2017-10-24T01:18:48.601Z,12.83
2017-10-24T01:21:23.584Z,14.20
2017-10-24T01:23:58.090Z,9.33
2017-10-24T01:26:32.576Z,12.17
2017-10-24T01:29:07.546Z,10.57
2017-10-24T01:31:42.022Z,14.70
2017-10-24T01:34:16.604Z,10.83
2017-10-24T01:36:51.800Z,13.47
2017-10-24T01:39:26.227Z,11.90
2017-10-24T01:42:00.908Z,11.80
2017-10-24T01:44:35.515Z,13.50
2017-10-24T01:47:10.393Z,10.73
2017-10-24T01:49:44.932Z,12.90
2017-10-24T01:52:18.788Z,16.13
2017-10-24T01:54:53.903Z,14.63
2017-10-24T01:57:29.116Z,17.83
2017-10-24T02:00:03.929Z,16.13
2017-10-24T02:02:38.732Z,19.40
2017-10-24T02:05:13.401Z,23.87
2017-10-24T02:07:47.934Z,18.30
2017-10-24T02:10:22.725Z,25.23
2017-10-24T02:12:57.279Z,23.63
2017-10-24T02:15:32.585Z,18.70
2017-10-24T02:18:06.860Z,21.13
2017-10-24T02:20:41.816Z,22.87
2017-10-24T02:23:17.068Z,19.50
2017-10-24T02:25:51.679Z,20.13
2017-10-24T02:28:26.521Z,25.07
2017-10-24T02:31:01.344Z,25.40
2017-10-24T02:33:36.184Z,27.47
2017-10-24T02:36:11.342Z,22.40
2017-10-24T02:38:46.009Z,27.37
2017-10-24T02:41:21.247Z,31.50
2017-10-24T02:43:55.768Z,25.90
2017-10-24T02:46:30.866Z,27.77
2017-10-24T02:49:05.632Z,30.83
2017-10-24T02:51:39.981Z,31.27
2017-10-24T02:54:14.973Z,31.97
2017-10-24T02:56:51.311Z,35.83
2017-10-24T02:59:26.464Z,38.80
2017-10-24T03:02:01.088Z,35.50
2017-10-24T03:04:35.774Z,40.17
2017-10-24T03:07:10.472Z,36.57
2017-10-24T03:09:45.256Z,41.70
2017-10-24T03:12:19.752Z,38.40
2017-10-24T03:14:54.808Z,49.87
2017-10-24T03:17:29.657Z,41.23
2017-10-24T03:20:04.421Z,44.87
2017-10-24T03:22:38.879Z,46.97
2017-10-24T03:25:13.872Z,48.40
2017-10-24T03:27:48.401Z,52.23
2017-10-24T03:30:23.237Z,49.90
2017-10-24T03:32:58.225Z,50.43
2017-10-24T03:35:33.588Z,50.30
2017-10-24T03:38:08.465Z,58.10
2017-10-24T03:40:43.140Z,53.77
2017-10-24T03:43:18.872Z,51.80
2017-10-24T03:45:53.568Z,54.50
2017-10-24T03:48:28.785Z,58.73
2017-10-24T03:51:03.826Z,50.53
2017-10-24T03:53:38.486Z,51.43
2017-10-24T03:56:13.892Z,43.97
2017-10-24T03:58:48.484Z,47.57
2017-10-24T04:01:23.245Z,49.33
2017-10-24T04:03:57.576Z,45.70
2017-10-24T04:06:32.393Z,56.23
2017-10-24T04:09:07.328Z,47.10
2017-10-24T04:11:41.855Z,52.53
2017-10-24T04:14:16.376Z,48.80
2017-10-24T04:16:50.936Z,53.70
2017-10-24T04:19:25.664Z,49.83
2017-10-24T04:22:00.132Z,54.90
2017-10-24T04:24:34.757Z,56.10
2017-10-24T04:27:09.232Z,59.00
2017-10-24T04:29:44.248Z,50.77
2017-10-24T04:32:18.691Z,55.00
2017-10-24T04:34:53.273Z,54.77
2017-10-24T04:37:27.900Z,54.47
2017-10-24T04:40:02.814Z,47.93
2017-10-24T04:42:38.792Z,53.77
2017-10-24T04:45:13.292Z,53.50
2017-10-24T04:47:48.029Z,53.17
2017-10-24T04:50:22.730Z,52.93
2017-10-24T04:52:57.633Z,58.17
2017-10-24T04:55:32.485Z,60.17
2017-10-24T04:58:07.027Z,49.73
2017-10-24T05:00:41.325Z,49.60
2017-10-24T05:03:16.252Z,45.63
2017-10-24T05:05:51.025Z,45.20
2017-10-24T05:08:25.736Z,48.63
2017-10-24T05:11:00.385Z,45.53
2017-10-24T05:13:35.020Z,49.80
2017-10-24T05:16:09.765Z,46.73
2017-10-24T05:18:44.494Z,45.70
2017-10-24T05:21:19.144Z,46.60
2017-10-24T05:23:54.168Z,40.53
2017-10-24T05:26:28.580Z,48.40
2017-10-24T05:29:03.261Z,48.40
2017-10-24T05:31:37.936Z,38.80
2017-10-24T05:34:12.681Z,48.67
2017-10-24T05:36:47.288Z,44.97
2017-10-24T05:39:21.661Z,43.93
2017-10-24T05:41:57.828Z,50.23
2017-10-24T05:44:32.452Z,45.17
2017-10-24T05:47:07.337Z,43.60
2017-10-24T05:49:41.932Z,43.20
2017-10-24T05:52:16.861Z,47.33
2017-10-24T05:54:51.407Z,46.97
2017-10-24T05:57:26.510Z,43.93
2017-10-24T06:00:01.049Z,44.73
2017-10-24T06:02:35.528Z,45.33
2017-10-24T06:05:10.533Z,44.63
2017-10-24T06:07:47.063Z,45.00
2017-10-24T06:10:21.684Z,45.60
2017-10-24T06:12:56.488Z,44.10
2017-10-24T06:15:31.261Z,45.77
2017-10-24T06:18:06.044Z,41.53
2017-10-24T06:20:40.581Z,39.03
2017-10-24T06:23:15.328Z,43.80
2017-10-24T06:25:51.181Z,41.10
2017-10-24T06:28:26.132Z,42.97
2017-10-24T06:31:01.368Z,43.37
2017-10-24T06:33:36.440Z,43.67
2017-10-24T06:36:11.148Z,45.27
2017-10-24T06:38:45.580Z,43.73
2017-10-24T06:41:20.258Z,44.10
2017-10-24T06:43:54.744Z,45.23
2017-10-24T06:46:29.444Z,45.80
2017-10-24T06:49:04.721Z,41.73
2017-10-24T06:51:39.244Z,36.93
2017-10-24T06:54:13.960Z,38.13
2017-10-24T06:56:48.708Z,38.40
2017-10-24T06:59:23.385Z,39.50
2017-10-24T07:01:58.048Z,38.97
2017-10-24T07:04:32.680Z,39.00
2017-10-24T07:07:07.789Z,39.20
2017-10-24T07:09:42.505Z,33.03
2017-10-24T07:12:17.141Z,34.07
2017-10-24T07:14:51.803Z,31.10
2017-10-24T07:17:26.703Z,32.47
2017-10-24T07:20:01.352Z,32.67
2017-10-24T07:22:36.268Z,34.90
2017-10-24T07:25:10.976Z,28.50
2017-10-24T07:27:45.745Z,25.73
2017-10-24T07:30:20.431Z,25.83
2017-10-24T07:32:55.212Z,30.30
2017-10-24T07:35:29.866Z,28.40
2017-10-24T07:38:04.655Z,27.93
2017-10-24T07:40:39.564Z,27.73
2017-10-24T07:43:13.984Z,27.50
2017-10-24T07:45:48.582Z,25.03
2017-10-24T07:48:23.552Z,24.47
2017-10-24T07:50:58.215Z,23.50
2017-10-24T07:53:33.025Z,24.87
2017-10-24T07:56:07.740Z,21.67
2017-10-24T07:58:42.604Z,22.60
2017-10-24T08:01:17.150Z,22.60
2017-10-24T08:03:51.888Z,15.50
2017-10-24T08:06:27.301Z,21.57
2017-10-24T08:09:02.028Z,22.20
2017-10-24T08:11:36.855Z,21.47
2017-10-24T08:14:13.380Z,21.80
2017-10-24T08:16:48.945Z,20.03
2017-10-24T08:19:23.782Z,17.57
2017-10-24T08:21:58.415Z,19.70
2017-10-24T08:24:33.143Z,15.97
2017-10-24T08:27:07.884Z,17.00
2017-10-24T08:29:43.536Z,17.43
2017-10-24T08:32:18.208Z,17.57
2017-10-24T08:34:52.960Z,20.03
2017-10-24T08:37:27.769Z,21.43
2017-10-24T08:40:02.620Z,19.07
2017-10-24T08:42:38.320Z,22.17
2017-10-24T08:45:12.752Z,20.53
2017-10-24T08:47:47.745Z,16.10
2017-10-24T08:50:22.365Z,19.17
2017-10-24T08:52:57.561Z,24.33
2017-10-24T08:55:32.190Z,16.53
2017-10-24T08:58:07.168Z,20.30
2017-10-24T09:00:41.423Z,15.53
2017-10-24T09:03:16.166Z,15.50
2017-10-24T09:08:53.827Z,18.93
2017-10-24T09:11:39.908Z,17.30
2017-10-24T09:14:17.923Z,12.60
2017-10-24T09:16:57.143Z,15.73
2017-10-24T09:20:02.268Z,12.23
2017-10-24T09:22:37.524Z,13.03
2017-10-24T09:25:12.412Z,12.40
2017-10-24T09:27:47.009Z,13.23
2017-10-24T09:30:21.888Z,10.37
2017-10-24T09:32:56.592Z,13.43
2017-10-24T09:35:31.137Z,10.93
2017-10-24T09:38:06.257Z,12.10
2017-10-24T09:40:40.681Z,11.93
2017-10-24T09:43:15.369Z,14.03
2017-10-24T09:45:49.515Z,11.87
2017-10-24T09:48:24.720Z,12.00
2017-10-24T09:51:07.044Z,11.03
2017-10-24T09:53:41.591Z,11.60
2017-10-24T09:56:33.160Z,11.90
2017-10-24T09:59:22.389Z,12.90
2017-10-24T10:01:57.669Z,13.97
2017-10-24T10:04:32.273Z,12.33
2017-10-24T10:07:13.856Z,13.47
2017-10-24T10:09:49.085Z,12.17
2017-10-24T10:12:23.504Z,13.37
2017-10-24T10:14:58.559Z,12.37
2017-10-24T10:17:33.612Z,11.40
2017-10-24T10:20:08.126Z,12.67
2017-10-24T10:22:43.045Z,12.77
2017-10-24T10:25:17.788Z,12.67
2017-10-24T10:27:52.575Z,13.67
2017-10-24T10:30:27.135Z,13.70
2017-10-24T10:33:02.312Z,13.30
2017-10-24T10:35:37.164Z,12.10
2017-10-24T10:38:11.464Z,13.60
2017-10-24T10:40:46.500Z,14.30
2017-10-24T10:43:20.908Z,13.00
2017-10-24T10:45:55.368Z,15.23
2017-10-24T10:48:30.657Z,14.63
2017-10-24T10:51:05.517Z,14.40
2017-10-24T10:53:40.362Z,17.50
2017-10-24T10:56:15.106Z,16.03
2017-10-24T10:58:49.573Z,15.73
2017-10-24T11:01:24.296Z,22.90
2017-10-24T11:03:59.353Z,19.83
2017-10-24T11:06:33.748Z,16.87
2017-10-24T11:09:08.692Z,17.77
2017-10-24T11:11:43.945Z,18.70
2017-10-24T11:14:18.620Z,22.60
2017-10-24T11:16:53.441Z,19.30
2017-10-24T11:19:28.364Z,20.57
2017-10-24T11:22:03.232Z,17.73
2017-10-24T11:24:38.100Z,19.83
2017-10-24T11:27:13.032Z,19.57
2017-10-24T11:29:47.808Z,19.03
2017-10-24T11:32:22.544Z,20.63
2017-10-24T11:34:57.411Z,19.67
2017-10-24T11:37:32.196Z,18.47
2017-10-24T11:40:06.888Z,20.43
2017-10-24T11:42:41.651Z,24.33
2017-10-24T11:45:16.601Z,20.60
2017-10-24T11:47:51.060Z,17.20
2017-10-24T11:50:25.965Z,17.03
2017-10-24T11:53:01.515Z,18.33
2017-10-24T11:55:36.178Z,18.37
2017-10-24T11:58:11.036Z,21.03
2017-10-24T12:00:45.595Z,18.07
2017-10-24T12:03:19.960Z,16.83
2017-10-24T12:05:55.008Z,19.33
2017-10-24T12:08:29.613Z,16.33
2017-10-24T12:11:04.451Z,19.17
2017-10-24T12:13:38.841Z,19.30
2017-10-24T12:16:13.672Z,17.50
2017-10-24T12:18:48.440Z,18.57
2017-10-24T12:21:23.307Z,19.83
2017-10-24T12:23:58.010Z,15.50
2017-10-24T12:26:32.861Z,18.33
2017-10-24T12:29:07.964Z,17.03
2017-10-24T12:31:42.941Z,15.90
2017-10-24T12:34:17.852Z,20.17
2017-10-24T12:36:52.808Z,17.17
2017-10-24T12:39:27.440Z,18.20
2017-10-24T12:42:02.072Z,20.03
2017-10-24T12:44:38.143Z,17.93
2017-10-24T12:47:15.953Z,17.37
2017-10-24T12:49:54.096Z,16.70
2017-10-24T12:52:29.132Z,17.00
2017-10-24T12:55:04.208Z,16.23
2017-10-24T12:57:39.598Z,16.50
2017-10-24T13:00:16.278Z,17.90
2017-10-24T13:02:50.844Z,16.43
2017-10-24T13:05:25.497Z,17.07
2017-10-24T13:08:00.275Z,16.73
2017-10-24T13:10:34.936Z,18.50
2017-10-24T13:13:09.633Z,17.53
2017-10-24T13:15:44.117Z,18.73
2017-10-24T13:18:18.987Z,17.10
2017-10-24T13:20:53.801Z,17.20
2017-10-24T13:23:28.500Z,19.37
2017-10-24T13:26:03.954Z,17.30
2017-10-24T13:28:39.028Z,18.00
2017-10-24T13:31:13.869Z,16.97
2017-10-24T13:33:48.652Z,17.97
2017-10-24T13:36:23.511Z,16.50
2017-10-24T13:38:58.372Z,17.93
2017-10-24T13:41:33.148Z,16.77
2017-10-24T13:44:08.159Z,15.23
2017-10-24T13:46:43.773Z,16.90
2017-10-24T13:49:18.536Z,15.40
2017-10-24T13:51:53.313Z,16.67
2017-10-24T13:54:28.045Z,16.03
2017-10-24T13:57:02.868Z,15.67
2017-10-24T13:59:37.605Z,18.80
2017-10-24T14:02:12.165Z,16.77
2017-10-24T14:04:52.234Z,17.90
2017-10-24T14:07:32.026Z,18.57
2017-10-24T14:10:11.845Z,18.73
2017-10-24T14:12:47.142Z,19.80
2017-10-24T14:15:21.976Z,19.03
2017-10-24T14:17:56.854Z,19.80
2017-10-24T14:20:31.501Z,19.83
2017-10-24T14:23:07.162Z,18.80
2017-10-24T14:25:42.846Z,21.60
2017-10-24T14:28:17.556Z,18.67
2017-10-24T14:30:52.342Z,21.60
2017-10-24T14:33:27.193Z,19.83
2017-10-24T14:36:01.920Z,20.37
2017-10-24T14:38:36.792Z,22.00
2017-10-24T14:41:12.460Z,19.10
2017-10-24T14:43:47.236Z,20.73
2017-10-24T14:46:22.600Z,18.80
2017-10-24T14:48:57.427Z,17.80
2017-10-24T14:51:32.172Z,20.60
2017-10-24T14:54:06.879Z,17.03
2017-10-24T14:56:41.293Z,19.77
2017-10-24T14:59:16.339Z,20.03
2017-10-24T15:01:51.093Z,22.13
2017-10-24T15:04:25.923Z,21.23
2017-10-24T15:07:00.834Z,20.30
2017-10-24T15:09:35.658Z,17.70
2017-10-24T15:12:10.260Z,17.60
2017-10-24T15:14:45.165Z,19.77
2017-10-24T15:17:19.969Z,19.00
2017-10-24T15:19:54.772Z,18.07
2017-10-24T15:22:29.541Z,18.40
2017-10-24T15:25:04.096Z,21.13
2017-10-24T15:27:39.073Z,18.57
2017-10-24T15:30:13.964Z,19.53
2017-10-24T15:32:48.690Z,17.63
2017-10-24T15:35:23.316Z,18.17
2017-10-24T15:37:58.460Z,18.40
2017-10-24T15:40:33.821Z,17.67
2017-10-24T15:43:08.672Z,16.90
2017-10-24T15:45:43.380Z,17.43
2017-10-24T15:48:18.136Z,18.50
2017-10-24T15:50:53.204Z,16.77
2017-10-24T15:53:28.230Z,19.07
2017-10-24T15:56:02.789Z,18.80
2017-10-24T15:58:37.467Z,18.20
2017-10-24T16:01:12.533Z,15.90
2017-10-24T16:03:47.663Z,16.20
2017-10-24T16:06:22.284Z,17.10
2017-10-24T16:08:57.380Z,19.87
2017-10-24T16:11:32.191Z,18.40
2017-10-24T16:14:07.285Z,16.80
2017-10-24T16:16:41.896Z,16.77
2017-10-24T16:19:16.581Z,16.33
2017-10-24T16:21:51.584Z,17.73
2017-10-24T16:24:26.440Z,18.47
2017-10-24T16:27:01.353Z,19.20
2017-10-24T16:29:35.965Z,17.60
2017-10-24T16:32:10.668Z,17.70
2017-10-24T16:34:45.516Z,18.40
2017-10-24T16:37:20.533Z,15.07
2017-10-24T16:39:55.269Z,17.30
2017-10-24T16:42:30.244Z,18.70
2017-10-24T16:45:04.729Z,18.07
2017-10-24T16:47:39.464Z,20.13
2017-10-24T16:50:14.265Z,20.10
2017-10-24T16:52:49.048Z,20.57
2017-10-24T16:55:23.848Z,16.90
2017-10-24T16:57:58.760Z,19.87
2017-10-24T17:00:33.712Z,20.87
2017-10-24T17:03:08.632Z,18.27
2017-10-24T17:05:43.476Z,19.50
2017-10-24T17:08:18.501Z,21.33
2017-10-24T17:10:53.418Z,21.50
2017-10-24T17:13:28.180Z,22.20
2017-10-24T17:16:03.143Z,22.53
2017-10-24T17:18:38.657Z,26.67
2017-10-24T17:21:13.200Z,25.70
2017-10-24T17:23:48.082Z,23.33
2017-10-24T17:26:22.716Z,24.77
2017-10-24T17:28:57.677Z,23.20
2017-10-24T17:31:32.073Z,24.20
2017-10-24T17:34:07.108Z,28.90
2017-10-24T17:36:41.880Z,23.80
2017-10-24T17:39:16.264Z,28.00
2017-10-24T17:41:51.181Z,25.20
2017-10-24T17:44:25.939Z,26.43
2017-10-24T17:47:00.824Z,29.13
2017-10-24T17:49:35.561Z,29.00
2017-10-24T17:52:10.168Z,26.37
2017-10-24T17:54:44.936Z,28.20
2017-10-24T17:57:19.709Z,28.83
2017-10-24T17:59:54.368Z,25.87
2017-10-24T18:02:29.044Z,29.37
2017-10-24T18:05:03.988Z,27.87
2017-10-24T18:07:38.449Z,25.33
2017-10-24T18:10:13.302Z,24.40
2017-10-24T18:12:48.148Z,24.83
2017-10-24T18:15:22.884Z,24.80
2017-10-24T18:17:57.636Z,15.60
2017-10-24T18:20:32.224Z,23.60
2017-10-24T18:23:06.991Z,27.93
2017-10-24T18:25:41.629Z,16.70
2017-10-24T18:28:16.529Z,16.80
2017-10-24T18:30:51.162Z,17.30
2017-10-24T18:33:26.084Z,16.53
2017-10-24T18:36:00.441Z,12.90
2017-10-24T18:38:35.583Z,15.80
2017-10-24T18:41:10.315Z,17.20
2017-10-24T18:43:44.828Z,16.43
2017-10-24T18:46:19.638Z,17.40
2017-10-24T18:48:54.190Z,14.87
2017-10-24T18:51:28.724Z,16.53
2017-10-24T18:54:03.740Z,15.90
2017-10-24T18:56:38.545Z,16.50
2017-10-24T18:59:13.133Z,16.33
2017-10-24T19:01:47.836Z,15.87
2017-10-24T19:04:22.468Z,15.10
2017-10-24T19:06:57.408Z,13.80
2017-10-24T19:09:32.400Z,16.67
2017-10-24T19:12:07.316Z,17.70
2017-10-24T19:14:42.652Z,16.57
2017-10-24T19:17:17.612Z,13.33
2017-10-24T19:19:52.849Z,13.00
2017-10-24T19:22:27.895Z,15.10
2017-10-24T19:25:02.900Z,14.20
2017-10-24T19:27:38.839Z,18.43
2017-10-24T19:30:13.781Z,30.47
2017-10-24T19:32:49.135Z,26.67
2017-10-24T19:35:23.875Z,24.70
2017-10-24T19:37:58.105Z,24.47
2017-10-24T19:40:33.024Z,21.80
2017-10-24T19:43:08.133Z,26.23
2017-10-24T19:45:42.504Z,26.87
2017-10-24T19:48:17.332Z,28.83
2017-10-24T19:50:51.931Z,27.17
2017-10-24T19:53:27.292Z,30.17
2017-10-24T19:56:02.421Z,27.20
2017-10-24T19:58:37.495Z,30.50
2017-10-24T20:01:12.192Z,35.00
2017-10-24T20:03:47.120Z,33.40
2017-10-24T20:06:21.961Z,29.63
2017-10-24T20:08:57.064Z,30.00
2017-10-24T20:11:31.932Z,33.43
2017-10-24T20:14:07.544Z,37.00
2017-10-24T20:16:42.550Z,34.07
2017-10-24T20:19:17.856Z,31.27
2017-10-24T20:21:52.881Z,34.77
2017-10-24T20:24:28.132Z,37.50
2017-10-24T20:27:02.688Z,35.57
2017-10-24T20:29:37.484Z,31.83
2017-10-24T20:32:12.626Z,37.07
2017-10-24T20:34:47.377Z,39.23
2017-10-24T20:37:22.445Z,34.27
2017-10-24T20:39:57.475Z,36.30
2017-10-24T20:42:32.104Z,34.37
2017-10-24T20:45:07.361Z,37.93
2017-10-24T20:47:42.440Z,33.90
2017-10-24T20:50:16.867Z,32.60
2017-10-24T20:52:51.836Z,39.10
2017-10-24T20:55:26.872Z,35.60
2017-10-24T20:58:01.802Z,39.37
2017-10-24T21:00:36.603Z,37.00
2017-10-24T21:03:11.729Z,34.57
2017-10-24T21:05:46.935Z,33.17
2017-10-24T21:08:21.988Z,35.27
2017-10-24T21:10:56.617Z,32.13
2017-10-24T21:13:31.691Z,33.93
2017-10-24T21:16:06.548Z,37.03
2017-10-24T21:18:41.449Z,34.43
2017-10-24T21:21:16.222Z,33.57
2017-10-24T21:23:51.280Z,32.10
2017-10-24T21:26:26.317Z,34.63
2017-10-24T21:29:01.983Z,35.00
2017-10-24T21:31:36.837Z,37.33
2017-10-24T21:34:11.989Z,34.93
2017-10-24T21:36:46.884Z,34.90
2017-10-24T21:39:21.784Z,32.33
2017-10-24T21:41:57.115Z,31.07
2017-10-24T21:44:32.084Z,36.43
2017-10-24T21:47:07.411Z,33.17
2017-10-24T21:49:42.940Z,30.53
2017-10-24T21:52:17.908Z,30.13
2017-10-24T21:54:53.159Z,28.70
2017-10-24T21:57:28.915Z,30.40
2017-10-24T22:00:03.176Z,29.83
2017-10-24T22:02:37.994Z,28.63
2017-10-24T22:05:13.392Z,28.63
2017-10-24T22:07:48.453Z,29.53
2017-10-24T22:10:23.696Z,36.30
2017-10-24T22:12:58.533Z,30.17
2017-10-24T22:15:33.531Z,31.33
2017-10-24T22:18:08.389Z,32.80
2017-10-24T22:20:43.613Z,33.30
2017-10-24T22:23:18.550Z,33.17
2017-10-24T22:25:53.112Z,34.80
2017-10-24T22:28:27.342Z,36.20
2017-10-24T22:31:02.524Z,37.20
2017-10-24T22:33:37.661Z,36.27
2017-10-24T22:36:12.504Z,41.03
2017-10-24T22:38:47.316Z,39.97
2017-10-24T22:41:22.020Z,37.77
2017-10-24T22:43:56.932Z,36.77
2017-10-24T22:46:31.953Z,34.73
2017-10-24T22:49:07.060Z,40.53
2017-10-24T22:51:42.403Z,40.23
2017-10-24T22:54:17.228Z,36.27
2017-10-24T22:56:51.853Z,34.57
2017-10-24T22:59:26.864Z,35.23
2017-10-24T23:02:01.621Z,35.77
2017-10-24T23:04:36.321Z,35.83
2017-10-24T23:07:11.900Z,31.20
2017-10-24T23:09:47.328Z,32.23
2017-10-24T23:12:22.136Z,38.27
2017-10-24T23:14:57.070Z,34.23
2017-10-24T23:17:31.928Z,31.03
2017-10-24T23:20:07.080Z,29.77
2017-10-24T23:22:41.852Z,30.00
2017-10-24T23:25:17.184Z,32.13
2017-10-24T23:27:51.897Z,32.23
2017-10-24T23:30:27.139Z,32.07
2017-10-24T23:33:02.403Z,27.20
2017-10-24T23:35:37.168Z,32.10
2017-10-24T23:38:12.321Z,28.03
2017-10-24T23:40:47.072Z,30.50
2017-10-24T23:43:22.100Z,28.50
2017-10-24T23:45:57.237Z,28.40
2017-10-24T23:48:32.581Z,29.10
2017-10-24T23:51:07.951Z,30.37
2017-10-24T23:53:42.796Z,29.73
2017-10-24T23:56:17.524Z,27.40
2017-10-24T23:58:52.248Z,28.00
